createdAt,value
2017-11-17T00:01:38.846Z,71.08
2017-11-17T00:04:05.849Z,71.54
2017-11-17T00:06:32.181Z,71.60
2017-11-17T00:08:58.494Z,71.88
2017-11-17T00:11:24.774Z,72.28
2017-11-17T00:13:51.849Z,72.35
2017-11-17T00:16:18.227Z,72.34
2017-11-17T00:18:44.557Z,72.49
2017-11-17T00:21:10.857Z,72.80
2017-11-17T00:23:37.129Z,72.28
2017-11-17T00:26:03.396Z,72.86
2017-11-17T00:28:29.716Z,73.17
2017-11-17T00:30:56.737Z,73.52
2017-11-17T00:33:24.569Z,73.33
2017-11-17T00:35:50.919Z,73.10
2017-11-17T00:38:17.215Z,73.42
2017-11-17T00:40:43.487Z,72.94
2017-11-17T00:43:09.854Z,73.15
2017-11-17T00:45:36.838Z,73.03
2017-11-17T00:48:03.125Z,73.85
2017-11-17T00:50:30.134Z,73.48
2017-11-17T00:52:56.420Z,73.27
2017-11-17T00:55:22.664Z,72.28
2017-11-17T00:57:48.986Z,72.17
2017-11-17T01:00:15.276Z,71.58
2017-11-17T01:02:41.555Z,71.71
2017-11-17T01:05:08.592Z,72.12
2017-11-17T01:07:34.822Z,72.11
2017-11-17T01:10:01.091Z,70.82
2017-11-17T01:12:27.384Z,70.78
2017-11-17T01:14:53.687Z,71.18
2017-11-17T01:17:20.682Z,71.65
2017-11-17T01:19:46.986Z,71.35
2017-11-17T01:22:13.260Z,71.57
2017-11-17T01:24:39.541Z,72.23
2017-11-17T01:27:05.817Z,72.27
2017-11-17T01:29:32.169Z,72.34
2017-11-17T01:31:58.469Z,72.02
2017-11-17T01:34:24.759Z,71.91
2017-11-17T01:36:51.824Z,72.28
2017-11-17T01:39:18.128Z,71.29
2017-11-17T01:41:45.163Z,71.46
2017-11-17T01:44:12.189Z,71.99
2017-11-17T01:46:38.586Z,72.21
2017-11-17T01:49:04.844Z,71.87
2017-11-17T01:51:31.101Z,71.78
2017-11-17T01:53:57.381Z,70.94
2017-11-17T01:56:23.742Z,71.48
2017-11-17T01:58:50.012Z,71.08
2017-11-17T02:01:17.026Z,71.34
2017-11-17T02:03:43.323Z,70.98
2017-11-17T02:06:09.607Z,71.13
2017-11-17T02:08:36.649Z,71.37
2017-11-17T02:11:03.700Z,70.89
2017-11-17T02:13:30.729Z,70.28
2017-11-17T02:15:56.986Z,69.86
2017-11-17T02:18:24.566Z,69.92
2017-11-17T02:20:50.837Z,70.20
2017-11-17T02:23:17.141Z,70.61
2017-11-17T02:25:43.424Z,70.68
2017-11-17T02:28:09.704Z,71.68
2017-11-17T02:30:36.006Z,71.23
2017-11-17T02:33:03.021Z,71.07
2017-11-17T02:35:29.279Z,70.87
2017-11-17T02:37:56.298Z,70.61
2017-11-17T02:40:23.355Z,70.12
2017-11-17T02:42:49.679Z,69.37
2017-11-17T02:45:15.927Z,69.19
2017-11-17T02:47:42.994Z,69.17
2017-11-17T02:50:09.279Z,69.65
2017-11-17T02:52:35.615Z,69.91
2017-11-17T02:55:01.954Z,70.10
2017-11-17T02:57:29.007Z,69.92
2017-11-17T02:59:55.328Z,68.89
2017-11-17T03:02:21.562Z,69.05
2017-11-17T03:04:48.610Z,68.17
2017-11-17T03:07:14.894Z,68.00
2017-11-17T03:09:41.179Z,67.50
2017-11-17T03:12:08.169Z,68.71
2017-11-17T03:14:34.446Z,70.34
2017-11-17T03:17:00.723Z,71.49
2017-11-17T03:19:27.025Z,72.27
2017-11-17T03:21:54.091Z,73.04
2017-11-17T03:24:21.107Z,72.77
2017-11-17T03:26:47.388Z,73.83
2017-11-17T03:29:13.667Z,73.53
2017-11-17T03:31:39.897Z,73.39
2017-11-17T03:34:06.222Z,73.81
2017-11-17T03:36:32.629Z,73.49
2017-11-17T03:38:58.908Z,73.76
2017-11-17T03:41:25.944Z,73.81
2017-11-17T03:43:52.267Z,73.45
2017-11-17T03:46:18.615Z,73.22
2017-11-17T03:48:45.672Z,73.27
2017-11-17T03:51:12.694Z,72.50
2017-11-17T03:53:39.030Z,73.00
2017-11-17T03:56:06.030Z,72.78
2017-11-17T03:58:32.318Z,72.26
2017-11-17T04:00:59.349Z,71.78
2017-11-17T04:03:25.613Z,72.52
2017-11-17T04:05:51.893Z,72.37
2017-11-17T04:08:18.221Z,73.22
2017-11-17T04:10:44.484Z,72.78
2017-11-17T04:13:11.551Z,72.24
2017-11-17T04:15:37.874Z,72.21
2017-11-17T04:18:04.907Z,72.06
2017-11-17T04:20:31.962Z,72.96
2017-11-17T04:22:58.298Z,73.17
2017-11-17T04:25:25.349Z,73.08
2017-11-17T04:27:51.723Z,72.80
2017-11-17T04:30:17.991Z,73.03
2017-11-17T04:32:44.282Z,72.13
2017-11-17T04:35:10.561Z,71.66
2017-11-17T04:37:37.585Z,71.86
2017-11-17T04:40:03.840Z,72.10
2017-11-17T04:42:30.972Z,71.70
2017-11-17T04:44:57.227Z,72.86
2017-11-17T04:47:24.250Z,71.88
2017-11-17T04:49:50.560Z,72.80
2017-11-17T04:52:16.954Z,73.86
2017-11-17T04:54:43.273Z,72.79
2017-11-17T04:57:09.568Z,71.39
2017-11-17T04:59:35.865Z,72.56
2017-11-17T05:02:02.147Z,73.04
2017-11-17T05:04:29.304Z,72.67
2017-11-17T05:06:56.344Z,72.67
2017-11-17T05:09:23.415Z,72.47
2017-11-17T05:11:49.771Z,72.48
2017-11-17T05:14:16.179Z,71.68
2017-11-17T05:16:42.469Z,71.62
2017-11-17T05:19:08.789Z,72.05
2017-11-17T05:21:35.138Z,72.12
2017-11-17T05:24:01.434Z,72.15
2017-11-17T05:26:27.705Z,72.75
2017-11-17T05:28:54.741Z,72.90
2017-11-17T05:31:21.010Z,73.35
2017-11-17T05:33:48.283Z,74.17
2017-11-17T05:36:14.574Z,74.13
2017-11-17T05:38:41.604Z,73.94
2017-11-17T05:41:07.849Z,73.95
2017-11-17T05:43:34.856Z,73.22
2017-11-17T05:46:01.235Z,72.75
2017-11-17T05:48:27.535Z,71.93
2017-11-17T05:50:53.798Z,71.60
2017-11-17T05:53:20.926Z,71.39
2017-11-17T05:55:47.262Z,71.68
2017-11-17T05:58:13.604Z,70.93
2017-11-17T06:00:47.656Z,71.12
2017-11-17T06:03:14.037Z,71.08
2017-11-17T06:05:40.402Z,70.41
2017-11-17T06:08:06.796Z,70.27
2017-11-17T06:10:33.142Z,70.36
2017-11-17T06:13:00.174Z,70.97
2017-11-17T06:15:26.449Z,69.90
2017-11-17T06:17:52.763Z,70.13
2017-11-17T06:20:19.803Z,70.55
2017-11-17T06:22:46.923Z,71.11
2017-11-17T06:25:13.220Z,71.72
2017-11-17T06:27:39.508Z,71.15
2017-11-17T06:30:06.576Z,70.75
2017-11-17T06:32:32.850Z,70.96
2017-11-17T06:34:59.192Z,70.65
2017-11-17T06:37:25.571Z,69.59
2017-11-17T06:39:51.922Z,70.28
2017-11-17T06:42:18.202Z,71.06
2017-11-17T06:44:44.434Z,70.79
2017-11-17T06:47:11.473Z,71.32
2017-11-17T06:49:37.728Z,71.06
2017-11-17T06:52:04.022Z,70.20
2017-11-17T06:54:30.263Z,70.40
2017-11-17T06:56:56.523Z,70.10
2017-11-17T06:59:22.824Z,70.31
2017-11-17T07:01:49.151Z,70.20
2017-11-17T07:04:15.436Z,69.89
2017-11-17T07:06:41.762Z,70.63
2017-11-17T07:09:08.032Z,70.97
2017-11-17T07:11:34.305Z,71.26
2017-11-17T07:14:00.627Z,70.90
2017-11-17T07:16:27.652Z,71.05
2017-11-17T07:18:53.990Z,71.08
2017-11-17T07:21:20.245Z,71.36
2017-11-17T07:23:46.587Z,71.14
2017-11-17T07:26:12.889Z,71.14
2017-11-17T07:28:39.923Z,70.22
2017-11-17T07:31:06.246Z,70.93
2017-11-17T07:33:33.280Z,71.62
2017-11-17T07:35:59.571Z,72.10
2017-11-17T07:38:25.874Z,72.07
2017-11-17T07:40:52.126Z,71.82
2017-11-17T07:43:18.452Z,72.15
2017-11-17T07:45:44.745Z,72.69
2017-11-17T07:48:11.051Z,73.19
2017-11-17T07:50:37.465Z,72.95
2017-11-17T07:53:03.724Z,71.67
2017-11-17T07:55:30.013Z,72.10
2017-11-17T07:57:56.336Z,71.79
2017-11-17T08:00:23.416Z,72.06
2017-11-17T08:02:49.699Z,71.93
2017-11-17T08:05:16.741Z,72.20
2017-11-17T08:07:43.779Z,73.09
2017-11-17T08:10:10.033Z,74.06
2017-11-17T08:12:37.086Z,73.88
2017-11-17T08:15:04.130Z,72.33
2017-11-17T08:17:49.752Z,72.20
2017-11-17T08:20:16.079Z,73.22
2017-11-17T08:22:42.448Z,73.77
2017-11-17T08:25:08.738Z,73.12
2017-11-17T08:27:35.115Z,72.09
2017-11-17T08:30:01.475Z,72.29
2017-11-17T08:32:27.792Z,73.43
2017-11-17T08:34:54.181Z,73.21
2017-11-17T08:37:20.469Z,73.03
2017-11-17T08:39:46.878Z,73.08
2017-11-17T08:42:13.409Z,72.82
2017-11-17T08:44:39.705Z,73.67
2017-11-17T08:47:06.014Z,73.10
2017-11-17T08:49:32.325Z,72.76
2017-11-17T08:51:59.426Z,72.93
2017-11-17T08:54:25.786Z,74.26
2017-11-17T08:56:52.134Z,75.00
2017-11-17T08:59:19.183Z,75.45
2017-11-17T09:01:46.251Z,77.02
2017-11-17T09:04:12.540Z,76.14
2017-11-17T09:06:38.928Z,75.62
2017-11-17T09:09:05.391Z,76.65
2017-11-17T09:11:31.701Z,76.06
2017-11-17T09:13:58.005Z,75.98
2017-11-17T09:16:24.402Z,74.83
2017-11-17T09:18:50.765Z,74.84
2017-11-17T09:21:17.096Z,74.80
2017-11-17T09:23:43.387Z,73.63
2017-11-17T09:26:10.703Z,74.89
2017-11-17T09:28:37.013Z,75.21
2017-11-17T09:31:03.327Z,74.46
2017-11-17T09:33:30.354Z,75.36
2017-11-17T09:35:57.430Z,75.07
2017-11-17T09:38:24.449Z,74.38
2017-11-17T09:40:50.751Z,75.08
2017-11-17T09:43:17.150Z,75.13
2017-11-17T09:45:44.218Z,74.62
2017-11-17T09:48:10.523Z,73.83
2017-11-17T09:50:37.643Z,73.43
2017-11-17T09:53:03.985Z,73.13
2017-11-17T09:55:30.232Z,73.47
2017-11-17T09:57:57.299Z,74.87
2017-11-17T10:00:23.667Z,75.35
2017-11-17T10:02:50.019Z,75.20
2017-11-17T10:05:16.307Z,75.44
2017-11-17T10:07:42.653Z,75.70
2017-11-17T10:10:08.978Z,74.70
2017-11-17T10:12:35.287Z,73.50
2017-11-17T10:15:01.573Z,72.84
2017-11-17T10:17:27.887Z,72.66
2017-11-17T10:19:54.221Z,72.12
2017-11-17T10:22:20.483Z,71.57
2017-11-17T10:24:47.533Z,72.29
2017-11-17T10:27:14.553Z,73.88
2017-11-17T10:29:40.850Z,73.41
2017-11-17T10:32:07.182Z,73.67
2017-11-17T10:34:33.509Z,73.51
2017-11-17T10:36:59.843Z,73.81
2017-11-17T10:39:26.177Z,73.72
2017-11-17T10:41:52.466Z,73.60
2017-11-17T10:44:19.562Z,73.99
2017-11-17T10:46:45.868Z,73.98
2017-11-17T10:49:12.190Z,74.05
2017-11-17T10:51:38.483Z,73.80
2017-11-17T10:54:04.851Z,74.08
2017-11-17T10:56:31.969Z,74.07
2017-11-17T10:59:00.234Z,73.92
2017-11-17T11:01:26.557Z,73.11
2017-11-17T11:03:52.825Z,73.47
2017-11-17T11:06:19.875Z,74.48
2017-11-17T11:08:46.925Z,74.09
2017-11-17T11:11:20.071Z,73.34
2017-11-17T11:13:46.367Z,72.24
2017-11-17T11:16:12.627Z,70.74
2017-11-17T11:18:38.959Z,70.49
2017-11-17T11:21:05.273Z,70.26
2017-11-17T11:23:31.642Z,68.68
2017-11-17T11:25:58.014Z,67.62
2017-11-17T11:28:24.339Z,66.83
2017-11-17T11:30:50.709Z,66.09
2017-11-17T11:33:17.006Z,66.20
2017-11-17T11:35:44.069Z,66.62
2017-11-17T11:38:10.591Z,66.01
2017-11-17T11:40:37.480Z,65.45
2017-11-17T11:43:03.830Z,65.47
2017-11-17T11:45:30.139Z,66.42
2017-11-17T11:47:56.491Z,67.28
2017-11-17T11:50:22.796Z,66.77
2017-11-17T11:52:49.112Z,66.51
2017-11-17T11:55:15.415Z,66.96
2017-11-17T11:57:42.437Z,67.59
2017-11-17T12:00:08.840Z,66.72
2017-11-17T12:02:35.877Z,67.20
2017-11-17T12:05:02.205Z,67.65
2017-11-17T12:07:28.557Z,67.31
2017-11-17T12:09:54.910Z,66.48
2017-11-17T12:12:21.196Z,65.37
2017-11-17T12:14:47.504Z,64.95
2017-11-17T12:17:14.562Z,63.45
2017-11-17T12:19:40.858Z,62.67
2017-11-17T12:22:07.155Z,60.99
2017-11-17T12:24:33.470Z,59.35
2017-11-17T12:26:59.801Z,51.85
2017-11-17T12:29:26.097Z,42.36
2017-11-17T12:31:53.116Z,41.25
2017-11-17T12:34:19.427Z,46.91
2017-11-17T12:36:45.840Z,52.29
2017-11-17T12:39:12.170Z,57.50
2017-11-17T12:41:38.473Z,58.80
2017-11-17T12:44:04.826Z,60.63
2017-11-17T12:46:31.126Z,58.67
2017-11-17T12:48:58.197Z,56.96
2017-11-17T12:51:24.507Z,52.26
2017-11-17T12:53:50.797Z,43.95
2017-11-17T12:56:17.101Z,39.51
2017-11-17T12:58:43.449Z,36.06
2017-11-17T13:01:09.813Z,34.86
2017-11-17T13:03:36.091Z,33.54
2017-11-17T13:06:02.385Z,36.23
2017-11-17T13:08:29.418Z,38.08
2017-11-17T13:10:56.449Z,36.34
2017-11-17T13:13:22.737Z,34.69
2017-11-17T13:15:50.022Z,34.05
2017-11-17T13:18:16.417Z,33.77
2017-11-17T13:20:42.877Z,33.79
2017-11-17T13:23:09.202Z,32.41
2017-11-17T13:25:35.517Z,31.53
2017-11-17T13:28:01.823Z,32.08
2017-11-17T13:30:28.889Z,30.96
2017-11-17T13:32:55.200Z,31.48
2017-11-17T13:35:22.238Z,32.47
2017-11-17T13:37:48.533Z,32.28
2017-11-17T13:40:14.907Z,34.32
2017-11-17T13:42:42.032Z,39.46
2017-11-17T13:45:08.392Z,44.17
2017-11-17T13:47:34.657Z,47.69
2017-11-17T13:50:00.964Z,50.82
2017-11-17T13:52:27.974Z,53.44
2017-11-17T13:54:54.309Z,54.53
2017-11-17T13:57:20.575Z,55.63
2017-11-17T13:59:47.631Z,57.19
2017-11-17T14:02:13.920Z,57.66
2017-11-17T14:04:40.224Z,57.68
2017-11-17T14:07:06.629Z,55.25
2017-11-17T14:09:32.976Z,56.49
2017-11-17T14:11:59.282Z,57.61
2017-11-17T14:14:26.564Z,57.87
2017-11-17T14:16:52.850Z,58.35
2017-11-17T14:19:19.914Z,59.96
2017-11-17T14:21:46.246Z,60.71
2017-11-17T14:24:13.372Z,62.18
2017-11-17T14:26:39.752Z,62.75
2017-11-17T14:29:06.088Z,63.79
2017-11-17T14:31:32.426Z,63.71
2017-11-17T14:34:05.793Z,64.57
2017-11-17T14:36:32.160Z,64.78
2017-11-17T14:38:58.498Z,65.00
2017-11-17T14:41:25.029Z,64.42
2017-11-17T14:43:51.519Z,64.06
2017-11-17T14:46:18.590Z,64.51
2017-11-17T14:48:44.939Z,64.99
2017-11-17T14:51:11.272Z,65.00
2017-11-17T14:53:37.602Z,65.37
2017-11-17T14:56:03.896Z,65.34
2017-11-17T14:58:31.975Z,66.03
2017-11-17T15:00:58.273Z,66.44
2017-11-17T15:03:24.774Z,66.92
2017-11-17T15:05:51.100Z,67.29
2017-11-17T15:08:17.419Z,67.59
2017-11-17T15:10:43.798Z,68.22
2017-11-17T15:13:10.193Z,68.62
2017-11-17T15:15:36.533Z,69.31
2017-11-17T15:18:03.578Z,69.66
2017-11-17T15:20:29.896Z,70.05
2017-11-17T15:22:56.304Z,70.37
2017-11-17T15:25:22.587Z,70.63
2017-11-17T15:27:48.854Z,71.19
2017-11-17T15:30:15.908Z,72.00
2017-11-17T15:32:42.183Z,72.04
2017-11-17T15:35:08.484Z,71.98
2017-11-17T15:37:34.775Z,72.12
2017-11-17T15:40:01.053Z,71.94
2017-11-17T15:42:27.367Z,72.51
2017-11-17T15:44:53.709Z,72.95
2017-11-17T15:47:19.991Z,73.36
2017-11-17T15:49:46.307Z,73.38
2017-11-17T15:52:12.627Z,73.39
2017-11-17T15:54:38.928Z,73.64
2017-11-17T15:57:05.257Z,74.08
2017-11-17T15:59:31.526Z,73.84
2017-11-17T16:01:57.814Z,73.97
2017-11-17T16:04:24.085Z,74.33
2017-11-17T16:06:50.414Z,74.80
2017-11-17T16:09:16.958Z,75.07
2017-11-17T16:11:43.225Z,75.48
2017-11-17T16:14:10.238Z,75.06
2017-11-17T16:16:36.545Z,75.52
2017-11-17T16:19:02.854Z,75.71
2017-11-17T16:21:29.166Z,76.15
2017-11-17T16:23:55.525Z,76.05
2017-11-17T16:26:21.801Z,75.75
2017-11-17T16:28:48.159Z,76.13
2017-11-17T16:31:15.182Z,75.81
2017-11-17T16:33:41.496Z,76.07
2017-11-17T16:36:07.834Z,76.23
2017-11-17T16:38:34.130Z,76.52
2017-11-17T16:41:00.401Z,76.58
2017-11-17T16:43:26.674Z,77.14
2017-11-17T16:45:53.161Z,77.56
2017-11-17T16:48:20.053Z,78.02
2017-11-17T16:50:46.463Z,78.38
2017-11-17T16:53:13.476Z,78.16
2017-11-17T16:55:39.762Z,78.36
2017-11-17T16:58:06.086Z,78.54
2017-11-17T17:00:33.131Z,79.01
2017-11-17T17:03:00.188Z,79.36
2017-11-17T17:05:26.643Z,79.11
2017-11-17T17:07:52.934Z,79.05
2017-11-17T17:10:19.944Z,79.05
2017-11-17T17:12:46.260Z,78.83
2017-11-17T17:15:12.547Z,79.04
2017-11-17T17:17:39.603Z,79.03
2017-11-17T17:20:06.685Z,79.10
2017-11-17T17:22:33.010Z,79.60
2017-11-17T17:24:59.367Z,80.03
2017-11-17T17:27:25.645Z,80.21
2017-11-17T17:29:52.658Z,80.69
2017-11-17T17:32:18.982Z,80.56
2017-11-17T17:34:45.291Z,80.37
2017-11-17T17:37:11.572Z,80.45
2017-11-17T17:39:38.623Z,80.32
2017-11-17T17:42:05.675Z,80.62
2017-11-17T17:44:32.700Z,80.52
2017-11-17T17:46:59.016Z,80.61
2017-11-17T17:49:25.415Z,80.68
2017-11-17T17:51:51.725Z,80.79
2017-11-17T17:54:18.791Z,80.71
2017-11-17T17:56:45.156Z,80.18
2017-11-17T17:59:11.418Z,79.37
2017-11-17T18:01:38.436Z,78.85
2017-11-17T18:04:04.841Z,78.74
2017-11-17T18:06:31.118Z,78.62
2017-11-17T18:08:57.496Z,78.96
2017-11-17T18:11:23.757Z,78.93
2017-11-17T18:13:50.062Z,79.30
2017-11-17T18:16:16.381Z,79.49
2017-11-17T18:18:42.665Z,79.44
2017-11-17T18:21:08.998Z,79.69
2017-11-17T18:23:35.299Z,79.48
2017-11-17T18:26:02.317Z,78.83
2017-11-17T18:28:29.708Z,78.59
2017-11-17T18:30:56.005Z,78.87
2017-11-17T18:33:22.341Z,79.40
2017-11-17T18:35:49.352Z,79.86
2017-11-17T18:38:15.709Z,79.74
2017-11-17T18:40:42.018Z,80.14
2017-11-17T18:43:09.181Z,80.42
2017-11-17T18:45:35.593Z,80.26
2017-11-17T18:48:01.934Z,80.33
2017-11-17T18:50:28.939Z,80.52
2017-11-17T18:52:55.269Z,80.46
2017-11-17T18:55:21.523Z,79.96
2017-11-17T18:57:47.895Z,79.22
2017-11-17T19:00:14.255Z,78.51
2017-11-17T19:02:40.567Z,78.58
2017-11-17T19:05:07.058Z,78.58
2017-11-17T19:07:33.459Z,78.83
2017-11-17T19:09:59.801Z,78.84
2017-11-17T19:12:26.179Z,78.40
2017-11-17T19:14:52.591Z,77.67
2017-11-17T19:17:18.881Z,78.04
2017-11-17T19:19:45.298Z,78.39
2017-11-17T19:22:11.659Z,78.03
2017-11-17T19:24:38.121Z,78.33
2017-11-17T19:27:04.416Z,78.32
2017-11-17T19:29:30.711Z,78.26
2017-11-17T19:31:57.085Z,78.20
2017-11-17T19:34:23.428Z,78.59
2017-11-17T19:36:49.858Z,78.56
2017-11-17T19:39:16.136Z,78.56
2017-11-17T19:41:42.474Z,79.38
2017-11-17T19:44:08.744Z,79.13
2017-11-17T19:46:35.095Z,79.30
2017-11-17T19:49:01.406Z,79.16
2017-11-17T19:51:27.724Z,78.98
2017-11-17T19:53:54.040Z,79.37
2017-11-17T19:56:20.880Z,79.19
2017-11-17T19:58:47.312Z,78.78
2017-11-17T20:01:20.657Z,78.39
2017-11-17T20:03:47.070Z,78.61
2017-11-17T20:06:14.333Z,79.37
2017-11-17T20:08:40.666Z,79.82
2017-11-17T20:11:06.947Z,79.40
2017-11-17T20:13:33.282Z,79.18
2017-11-17T20:15:59.567Z,79.25
2017-11-17T20:18:25.877Z,78.81
2017-11-17T20:20:52.209Z,77.60
2017-11-17T20:23:18.523Z,77.57
2017-11-17T20:25:45.167Z,78.08
2017-11-17T20:28:11.655Z,77.45
2017-11-17T20:30:38.716Z,78.48
2017-11-17T20:33:05.924Z,78.81
2017-11-17T20:35:32.345Z,78.89
2017-11-17T20:37:58.746Z,78.73
2017-11-17T20:40:25.073Z,79.10
2017-11-17T20:42:51.412Z,79.61
2017-11-17T20:45:17.764Z,79.76
2017-11-17T20:47:45.126Z,79.94
2017-11-17T20:50:11.443Z,79.29
2017-11-17T20:52:37.749Z,79.01
2017-11-17T20:55:04.086Z,79.19
2017-11-17T20:57:30.478Z,79.32
2017-11-17T20:59:56.771Z,79.61
2017-11-17T21:02:23.117Z,79.79
2017-11-17T21:04:49.490Z,79.79
2017-11-17T21:07:16.558Z,79.91
2017-11-17T21:09:42.922Z,79.96
2017-11-17T21:12:09.278Z,79.84
2017-11-17T21:14:35.557Z,79.77
2017-11-17T21:17:01.890Z,79.89
2017-11-17T21:19:28.212Z,79.21
2017-11-17T21:21:54.511Z,79.03
2017-11-17T21:24:20.854Z,78.97
2017-11-17T21:26:47.934Z,78.86
2017-11-17T21:29:14.276Z,78.83
2017-11-17T21:31:40.624Z,78.85
2017-11-17T21:34:06.935Z,79.01
2017-11-17T21:36:33.271Z,79.06
2017-11-17T21:38:59.581Z,78.98
2017-11-17T21:41:25.901Z,78.99
2017-11-17T21:43:53.935Z,79.21
2017-11-17T21:46:20.266Z,79.22
2017-11-17T21:48:46.660Z,79.06
2017-11-17T21:51:12.951Z,78.90
2017-11-17T21:53:40.014Z,78.96
2017-11-17T21:56:07.025Z,78.93
2017-11-17T21:58:33.332Z,78.68
2017-11-17T22:00:59.633Z,78.66
2017-11-17T22:03:26.988Z,78.30
2017-11-17T22:05:53.243Z,78.53
2017-11-17T22:08:19.509Z,78.80
2017-11-17T22:10:45.904Z,78.84
2017-11-17T22:13:12.219Z,78.78
2017-11-17T22:15:38.480Z,78.78
2017-11-17T22:18:04.806Z,78.62
2017-11-17T22:20:31.125Z,78.38
2017-11-17T22:22:57.440Z,78.61
2017-11-17T22:25:23.704Z,79.04
2017-11-17T22:27:49.986Z,78.96
2017-11-17T22:30:17.010Z,79.08
2017-11-17T22:32:43.378Z,79.13
2017-11-17T22:35:09.652Z,79.35
2017-11-17T22:37:36.580Z,79.21
2017-11-17T22:40:02.836Z,79.07
2017-11-17T22:42:29.140Z,78.55
2017-11-17T22:44:55.436Z,78.37
2017-11-17T22:47:21.703Z,78.46
2017-11-17T22:49:48.025Z,78.12
2017-11-17T22:52:14.323Z,78.35
2017-11-17T22:54:41.379Z,78.23
2017-11-17T22:57:07.664Z,78.15
2017-11-17T22:59:34.056Z,77.50
2017-11-17T23:02:00.829Z,76.56
2017-11-17T23:04:28.182Z,76.60
2017-11-17T23:06:54.544Z,76.22
2017-11-17T23:09:30.635Z,76.32
2017-11-17T23:11:57.216Z,76.04
2017-11-17T23:14:27.662Z,75.95
2017-11-17T23:16:54.091Z,76.39
2017-11-17T23:19:21.134Z,77.00
2017-11-17T23:21:47.407Z,77.43
2017-11-17T23:24:13.660Z,76.93
2017-11-17T23:26:40.007Z,76.33
2017-11-17T23:29:06.312Z,76.07
2017-11-17T23:31:32.628Z,76.38
2017-11-17T23:33:58.911Z,77.20
2017-11-17T23:36:25.206Z,77.05
2017-11-17T23:38:51.519Z,77.14
2017-11-17T23:41:17.864Z,76.79
2017-11-17T23:43:44.076Z,77.47
2017-11-17T23:46:10.350Z,77.75
2017-11-17T23:48:36.641Z,77.96
2017-11-17T23:51:03.672Z,77.63
2017-11-17T23:53:29.939Z,77.77
2017-11-17T23:55:56.232Z,77.92
2017-11-17T23:58:23.220Z,78.09
